createdAt,value
2018-04-17T00:00:10.117Z,12.38
2018-04-17T00:10:07.881Z,12.19
2018-04-17T00:20:02.981Z,12.19
2018-04-17T00:30:00.338Z,12.09
2018-04-17T00:39:59.106Z,11.99
2018-04-17T00:49:56.099Z,12.09
2018-04-17T00:59:51.637Z,11.99
2018-04-17T01:09:49.545Z,11.90
2018-04-17T01:19:48.159Z,11.70
2018-04-17T01:29:46.315Z,11.70
2018-04-17T01:39:43.736Z,11.70
2018-04-17T01:49:40.652Z,11.70
2018-04-17T01:59:37.008Z,11.80
2018-04-17T02:09:35.490Z,11.70
2018-04-17T02:19:32.729Z,11.80
2018-04-17T02:29:30.743Z,11.80
2018-04-17T02:39:27.335Z,11.80
2018-04-17T02:49:24.084Z,11.70
2018-04-17T02:59:22.514Z,11.70
2018-04-17T03:09:21.106Z,11.70
2018-04-17T03:19:18.248Z,11.60
2018-04-17T03:29:14.153Z,11.60
2018-04-17T03:39:12.078Z,11.60
2018-04-17T03:49:09.803Z,11.50
2018-04-17T03:59:06.930Z,11.60
2018-04-17T04:09:03.502Z,11.50
2018-04-17T04:19:01.290Z,11.50
2018-04-17T04:28:59.413Z,11.50
2018-04-17T04:38:53.319Z,11.41
2018-04-17T04:48:51.884Z,11.50
2018-04-17T04:58:46.835Z,11.60
2018-04-17T05:08:43.565Z,11.70
2018-04-17T05:18:41.625Z,11.70
2018-04-17T05:28:40.165Z,11.89
2018-04-17T05:38:36.282Z,11.90
2018-04-17T05:48:33.448Z,11.99
2018-04-17T05:58:29.283Z,12.29
2018-04-17T06:08:27.621Z,12.38
2018-04-17T06:18:24.335Z,12.58
2018-04-17T06:28:19.262Z,12.87
2018-04-17T06:38:16.821Z,12.77
2018-04-17T06:48:12.841Z,12.87
2018-04-17T06:58:08.280Z,12.87
2018-04-17T07:08:02.487Z,12.87
2018-04-17T07:17:58.135Z,13.26
2018-04-17T07:27:51.477Z,13.66
2018-04-17T07:37:46.952Z,13.95
2018-04-17T07:47:40.331Z,14.24
2018-04-17T07:57:35.543Z,14.63
2018-04-17T08:07:32.445Z,15.03
2018-04-17T08:17:26.997Z,15.32
2018-04-17T08:27:22.275Z,15.81
2018-04-17T08:37:20.254Z,16.10
2018-04-17T08:47:18.710Z,16.30
2018-04-17T08:57:11.097Z,16.59
2018-04-17T09:07:08.092Z,17.08
2018-04-17T09:17:05.217Z,17.57
2018-04-17T09:27:00.936Z,17.67
2018-04-17T09:36:56.946Z,17.57
2018-04-17T09:46:51.689Z,17.27
2018-04-17T09:56:46.044Z,17.47
2018-04-17T10:06:44.388Z,18.06
2018-04-17T10:16:21.425Z,17.96
2018-04-17T10:25:59.027Z,19.03
2018-04-17T10:35:36.372Z,18.74
2018-04-17T10:45:13.819Z,18.25
2018-04-17T10:54:50.323Z,17.76
2018-04-17T11:04:28.079Z,18.25
2018-04-17T11:14:05.488Z,18.84
2018-04-17T11:23:43.361Z,18.94
2018-04-17T11:33:21.017Z,19.04
2018-04-17T11:42:57.496Z,19.23
2018-04-17T11:52:34.352Z,18.94
2018-04-17T12:02:11.282Z,19.13
2018-04-17T12:11:48.406Z,19.33
2018-04-17T12:21:26.688Z,19.72
2018-04-17T12:31:05.893Z,20.31
2018-04-17T12:40:44.449Z,20.40
2018-04-17T12:50:23.292Z,21.97
2018-04-17T12:59:59.685Z,21.87
2018-04-17T13:09:37.007Z,20.80
2018-04-17T13:19:12.587Z,20.21
2018-04-17T13:28:52.160Z,20.79
2018-04-17T13:38:29.883Z,21.38
2018-04-17T13:48:06.336Z,20.60
2018-04-17T13:57:48.630Z,22.46
2018-04-17T14:07:32.545Z,24.51
2018-04-17T14:17:08.708Z,23.04
2018-04-17T14:26:43.147Z,22.65
2018-04-17T14:36:20.974Z,21.68
2018-04-17T14:45:47.550Z,20.31
2018-04-17T14:55:23.229Z,20.31
2018-04-17T15:05:07.011Z,20.99
2018-04-17T15:14:49.150Z,23.05
2018-04-17T15:24:36.343Z,23.34
2018-04-17T15:34:07.461Z,23.04
2018-04-17T15:43:43.109Z,22.65
2018-04-17T15:53:23.397Z,22.85
2018-04-17T16:02:54.205Z,20.89
2018-04-17T16:12:23.920Z,20.11
2018-04-17T16:21:51.233Z,19.82
2018-04-17T16:31:27.107Z,19.43
2018-04-17T16:41:03.382Z,19.04
2018-04-17T16:50:39.475Z,18.84
2018-04-17T17:00:15.529Z,18.55
2018-04-17T17:09:51.582Z,18.25
2018-04-17T17:19:28.630Z,18.06
2018-04-17T17:29:04.154Z,17.66
2018-04-17T17:38:58.893Z,16.98
2018-04-17T17:48:52.324Z,16.00
2018-04-17T17:58:46.387Z,15.42
2018-04-17T18:08:41.176Z,14.93
2018-04-17T18:18:37.224Z,14.44
2018-04-17T18:28:32.863Z,13.95
2018-04-17T18:38:26.402Z,13.56
2018-04-17T18:48:22.181Z,13.17
2018-04-17T18:58:19.139Z,12.87
2018-04-17T19:08:15.079Z,12.68
2018-04-17T19:18:11.524Z,12.38
2018-04-17T19:28:06.740Z,12.29
2018-04-17T19:38:02.723Z,12.19
2018-04-17T19:47:59.042Z,11.99
2018-04-17T19:57:52.646Z,11.80
2018-04-17T20:07:48.418Z,11.70
2018-04-17T20:17:44.062Z,11.21
2018-04-17T20:27:39.539Z,11.02
2018-04-17T20:37:35.638Z,10.62
2018-04-17T20:47:33.217Z,10.43
2018-04-17T20:57:29.245Z,10.33
2018-04-17T21:07:23.075Z,10.23
2018-04-17T21:17:20.562Z,10.04
2018-04-17T21:27:18.044Z,10.04
2018-04-17T21:37:13.199Z,9.74
2018-04-17T21:47:09.521Z,9.74
2018-04-17T21:57:07.519Z,9.65
2018-04-17T22:07:04.476Z,9.55
2018-04-17T22:16:58.880Z,9.45
2018-04-17T22:26:54.450Z,9.35
2018-04-17T22:36:50.205Z,9.06
2018-04-17T22:46:46.860Z,8.86
2018-04-17T22:56:45.769Z,8.86
2018-04-17T23:06:40.885Z,8.77
2018-04-17T23:16:36.213Z,8.47
2018-04-17T23:26:34.029Z,8.47
2018-04-17T23:36:29.813Z,8.28
2018-04-17T23:46:25.367Z,8.28
2018-04-17T23:56:22.420Z,8.18
